sensor_id;sensor_type;location;lat;lon;timestamp;P1;durP1;ratioP1;P2;durP2;ratioP2
48809;SDS011;40070;47.322;18.784;2023-08-06T00:00:32;5.57;;;3.68;;
48809;SDS011;40070;47.322;18.784;2023-08-06T00:02:30;6.23;;;3.77;;
48809;SDS011;40070;47.322;18.784;2023-08-06T00:04:31;6.06;;;3.89;;
48809;SDS011;40070;47.322;18.784;2023-08-06T00:06:32;6.87;;;3.96;;
48809;SDS011;40070;47.322;18.784;2023-08-06T00:08:32;8.62;;;3.93;;
48809;SDS011;40070;47.322;18.784;2023-08-06T00:10:34;6.42;;;3.82;;
48809;SDS011;40070;47.322;18.784;2023-08-06T00:12:35;6.63;;;3.42;;
48809;SDS011;40070;47.322;18.784;2023-08-06T00:14:36;7.92;;;3.57;;
48809;SDS011;40070;47.322;18.784;2023-08-06T00:16:44;6.22;;;3.68;;
48809;SDS011;40070;47.322;18.784;2023-08-06T00:18:42;6.45;;;3.86;;
48809;SDS011;40070;47.322;18.784;2023-08-06T00:20:43;6.10;;;3.66;;
48809;SDS011;40070;47.322;18.784;2023-08-06T00:22:44;6.08;;;3.84;;
48809;SDS011;40070;47.322;18.784;2023-08-06T00:24:45;6.52;;;3.83;;
48809;SDS011;40070;47.322;18.784;2023-08-06T00:26:46;6.36;;;3.58;;
48809;SDS011;40070;47.322;18.784;2023-08-06T00:28:47;6.94;;;3.86;;
48809;SDS011;40070;47.322;18.784;2023-08-06T00:30:54;6.05;;;3.58;;
48809;SDS011;40070;47.322;18.784;2023-08-06T00:32:49;5.69;;;3.69;;
48809;SDS011;40070;47.322;18.784;2023-08-06T00:34:50;7.34;;;3.70;;
48809;SDS011;40070;47.322;18.784;2023-08-06T00:36:51;5.62;;;3.60;;
48809;SDS011;40070;47.322;18.784;2023-08-06T00:38:52;6.86;;;3.89;;
48809;SDS011;40070;47.322;18.784;2023-08-06T00:40:53;6.95;;;3.96;;
48809;SDS011;40070;47.322;18.784;2023-08-06T00:42:54;7.36;;;3.94;;
48809;SDS011;40070;47.322;18.784;2023-08-06T00:44:55;7.19;;;4.18;;
48809;SDS011;40070;47.322;18.784;2023-08-06T00:46:56;5.50;;;3.37;;
48809;SDS011;40070;47.322;18.784;2023-08-06T00:48:57;6.62;;;4.11;;
48809;SDS011;40070;47.322;18.784;2023-08-06T00:50:58;6.43;;;3.97;;
48809;SDS011;40070;47.322;18.784;2023-08-06T00:52:59;7.53;;;4.45;;
48809;SDS011;40070;47.322;18.784;2023-08-06T00:55:00;7.46;;;4.36;;
48809;SDS011;40070;47.322;18.784;2023-08-06T00:57:01;6.94;;;4.10;;
48809;SDS011;40070;47.322;18.784;2023-08-06T00:59:03;5.77;;;3.63;;
48809;SDS011;40070;47.322;18.784;2023-08-06T01:01:03;5.80;;;3.98;;
48809;SDS011;40070;47.322;18.784;2023-08-06T01:03:04;9.03;;;4.05;;
48809;SDS011;40070;47.322;18.784;2023-08-06T01:05:05;7.09;;;3.77;;
48809;SDS011;40070;47.322;18.784;2023-08-06T01:09:43;6.37;;;4.04;;
48809;SDS011;40070;47.322;18.784;2023-08-06T01:12:03;5.97;;;3.67;;
48809;SDS011;40070;47.322;18.784;2023-08-06T01:13:59;6.66;;;3.76;;
48809;SDS011;40070;47.322;18.784;2023-08-06T01:16:18;6.65;;;4.31;;
48809;SDS011;40070;47.322;18.784;2023-08-06T01:18:18;6.86;;;4.05;;
48809;SDS011;40070;47.322;18.784;2023-08-06T01:20:19;7.17;;;3.84;;
48809;SDS011;40070;47.322;18.784;2023-08-06T01:22:20;6.99;;;3.44;;
48809;SDS011;40070;47.322;18.784;2023-08-06T01:24:21;5.04;;;3.65;;
48809;SDS011;40070;47.322;18.784;2023-08-06T01:31:03;5.70;;;3.36;;
48809;SDS011;40070;47.322;18.784;2023-08-06T01:33:06;5.08;;;3.39;;
48809;SDS011;40070;47.322;18.784;2023-08-06T01:35:10;5.12;;;2.86;;
48809;SDS011;40070;47.322;18.784;2023-08-06T01:37:11;5.33;;;3.49;;
48809;SDS011;40070;47.322;18.784;2023-08-06T01:39:12;4.82;;;3.23;;
48809;SDS011;40070;47.322;18.784;2023-08-06T01:41:13;5.44;;;3.14;;
48809;SDS011;40070;47.322;18.784;2023-08-06T01:43:14;5.76;;;2.99;;
48809;SDS011;40070;47.322;18.784;2023-08-06T01:45:15;6.79;;;3.24;;
48809;SDS011;40070;47.322;18.784;2023-08-06T01:47:16;5.01;;;2.91;;
48809;SDS011;40070;47.322;18.784;2023-08-06T01:49:17;6.14;;;3.10;;
48809;SDS011;40070;47.322;18.784;2023-08-06T01:51:18;5.83;;;3.20;;
48809;SDS011;40070;47.322;18.784;2023-08-06T01:53:19;5.99;;;3.08;;
48809;SDS011;40070;47.322;18.784;2023-08-06T01:55:20;4.95;;;2.37;;
48809;SDS011;40070;47.322;18.784;2023-08-06T01:57:21;4.95;;;2.58;;
48809;SDS011;40070;47.322;18.784;2023-08-06T01:59:22;5.48;;;2.94;;
48809;SDS011;40070;47.322;18.784;2023-08-06T02:01:23;5.05;;;2.65;;
48809;SDS011;40070;47.322;18.784;2023-08-06T02:03:23;5.78;;;3.18;;
48809;SDS011;40070;47.322;18.784;2023-08-06T02:05:24;5.47;;;2.45;;
48809;SDS011;40070;47.322;18.784;2023-08-06T02:07:25;4.03;;;2.35;;
48809;SDS011;40070;47.322;18.784;2023-08-06T02:09:26;5.27;;;2.35;;
48809;SDS011;40070;47.322;18.784;2023-08-06T02:11:27;4.85;;;2.18;;
48809;SDS011;40070;47.322;18.784;2023-08-06T02:13:28;4.31;;;2.37;;
48809;SDS011;40070;47.322;18.784;2023-08-06T02:15:29;4.38;;;2.67;;
48809;SDS011;40070;47.322;18.784;2023-08-06T02:17:30;5.35;;;3.13;;
48809;SDS011;40070;47.322;18.784;2023-08-06T02:19:31;4.95;;;2.39;;
48809;SDS011;40070;47.322;18.784;2023-08-06T02:21:32;4.38;;;2.39;;
48809;SDS011;40070;47.322;18.784;2023-08-06T02:23:33;3.95;;;2.56;;
48809;SDS011;40070;47.322;18.784;2023-08-06T02:25:34;3.35;;;1.93;;
48809;SDS011;40070;47.322;18.784;2023-08-06T02:27:36;4.42;;;2.68;;
48809;SDS011;40070;47.322;18.784;2023-08-06T02:29:36;3.89;;;2.11;;
48809;SDS011;40070;47.322;18.784;2023-08-06T02:31:37;5.83;;;2.30;;
48809;SDS011;40070;47.322;18.784;2023-08-06T02:33:38;4.02;;;2.22;;
48809;SDS011;40070;47.322;18.784;2023-08-06T02:35:39;4.44;;;2.59;;
48809;SDS011;40070;47.322;18.784;2023-08-06T02:37:40;4.17;;;1.94;;
48809;SDS011;40070;47.322;18.784;2023-08-06T02:39:41;6.73;;;2.45;;
48809;SDS011;40070;47.322;18.784;2023-08-06T02:41:42;4.11;;;2.29;;
48809;SDS011;40070;47.322;18.784;2023-08-06T02:43:44;4.35;;;2.31;;
48809;SDS011;40070;47.322;18.784;2023-08-06T02:45:45;5.12;;;2.65;;
48809;SDS011;40070;47.322;18.784;2023-08-06T02:47:46;4.52;;;2.54;;
48809;SDS011;40070;47.322;18.784;2023-08-06T02:49:47;3.79;;;2.56;;
48809;SDS011;40070;47.322;18.784;2023-08-06T02:51:48;5.41;;;2.69;;
48809;SDS011;40070;47.322;18.784;2023-08-06T02:53:49;6.08;;;2.51;;
48809;SDS011;40070;47.322;18.784;2023-08-06T02:55:50;4.13;;;2.69;;
48809;SDS011;40070;47.322;18.784;2023-08-06T02:57:51;4.72;;;2.70;;
48809;SDS011;40070;47.322;18.784;2023-08-06T02:59:52;5.91;;;2.78;;
48809;SDS011;40070;47.322;18.784;2023-08-06T03:01:53;4.74;;;2.70;;
48809;SDS011;40070;47.322;18.784;2023-08-06T03:03:54;4.56;;;2.70;;
48809;SDS011;40070;47.322;18.784;2023-08-06T03:05:55;5.39;;;2.80;;
48809;SDS011;40070;47.322;18.784;2023-08-06T03:07:55;6.15;;;2.78;;
48809;SDS011;40070;47.322;18.784;2023-08-06T03:09:56;4.81;;;2.51;;
48809;SDS011;40070;47.322;18.784;2023-08-06T03:11:57;5.17;;;2.80;;
48809;SDS011;40070;47.322;18.784;2023-08-06T03:13:58;5.40;;;2.50;;
48809;SDS011;40070;47.322;18.784;2023-08-06T03:15:59;4.16;;;2.31;;
48809;SDS011;40070;47.322;18.784;2023-08-06T03:18:00;5.91;;;2.30;;
48809;SDS011;40070;47.322;18.784;2023-08-06T03:20:01;7.10;;;2.91;;
48809;SDS011;40070;47.322;18.784;2023-08-06T03:22:02;3.84;;;2.00;;
48809;SDS011;40070;47.322;18.784;2023-08-06T03:24:03;4.62;;;2.11;;
48809;SDS011;40070;47.322;18.784;2023-08-06T03:26:06;3.33;;;1.56;;
48809;SDS011;40070;47.322;18.784;2023-08-06T03:28:07;3.46;;;1.92;;
48809;SDS011;40070;47.322;18.784;2023-08-06T03:30:09;2.80;;;1.57;;
48809;SDS011;40070;47.322;18.784;2023-08-06T03:32:09;2.85;;;1.28;;
48809;SDS011;40070;47.322;18.784;2023-08-06T03:34:10;2.68;;;1.37;;
48809;SDS011;40070;47.322;18.784;2023-08-06T03:36:11;2.91;;;1.37;;
48809;SDS011;40070;47.322;18.784;2023-08-06T03:38:12;2.99;;;1.46;;
48809;SDS011;40070;47.322;18.784;2023-08-06T03:40:13;3.36;;;1.47;;
48809;SDS011;40070;47.322;18.784;2023-08-06T03:42:14;4.04;;;1.48;;
48809;SDS011;40070;47.322;18.784;2023-08-06T03:44:15;3.95;;;1.76;;
48809;SDS011;40070;47.322;18.784;2023-08-06T03:46:16;3.16;;;1.76;;
48809;SDS011;40070;47.322;18.784;2023-08-06T03:48:17;3.41;;;1.95;;
48809;SDS011;40070;47.322;18.784;2023-08-06T03:50:18;4.22;;;1.49;;
48809;SDS011;40070;47.322;18.784;2023-08-06T03:52:19;3.07;;;1.76;;
48809;SDS011;40070;47.322;18.784;2023-08-06T03:54:20;3.57;;;2.20;;
48809;SDS011;40070;47.322;18.784;2023-08-06T03:56:21;3.68;;;1.94;;
48809;SDS011;40070;47.322;18.784;2023-08-06T03:58:22;3.50;;;1.84;;
48809;SDS011;40070;47.322;18.784;2023-08-06T04:00:23;3.68;;;1.75;;
48809;SDS011;40070;47.322;18.784;2023-08-06T04:02:24;3.95;;;2.04;;
48809;SDS011;40070;47.322;18.784;2023-08-06T04:04:25;5.91;;;1.95;;
48809;SDS011;40070;47.322;18.784;2023-08-06T04:06:26;5.44;;;1.93;;
48809;SDS011;40070;47.322;18.784;2023-08-06T04:08:27;3.87;;;2.04;;
48809;SDS011;40070;47.322;18.784;2023-08-06T04:10:32;3.64;;;1.85;;
48809;SDS011;40070;47.322;18.784;2023-08-06T04:12:33;4.45;;;1.86;;
48809;SDS011;40070;47.322;18.784;2023-08-06T04:14:33;3.43;;;1.66;;
48809;SDS011;40070;47.322;18.784;2023-08-06T04:16:35;2.95;;;1.65;;
48809;SDS011;40070;47.322;18.784;2023-08-06T04:18:36;3.00;;;1.56;;
48809;SDS011;40070;47.322;18.784;2023-08-06T04:20:43;3.39;;;1.65;;
48809;SDS011;40070;47.322;18.784;2023-08-06T04:22:38;2.76;;;1.28;;
48809;SDS011;40070;47.322;18.784;2023-08-06T04:24:39;2.66;;;1.36;;
48809;SDS011;40070;47.322;18.784;2023-08-06T04:26:40;2.30;;;1.10;;
48809;SDS011;40070;47.322;18.784;2023-08-06T04:28:41;2.04;;;1.00;;
48809;SDS011;40070;47.322;18.784;2023-08-06T04:30:42;2.95;;;1.01;;
48809;SDS011;40070;47.322;18.784;2023-08-06T04:32:44;1.75;;;1.01;;
48809;SDS011;40070;47.322;18.784;2023-08-06T04:34:45;1.60;;;0.64;;
48809;SDS011;40070;47.322;18.784;2023-08-06T04:36:46;1.20;;;0.65;;
48809;SDS011;40070;47.322;18.784;2023-08-06T04:38:47;1.28;;;0.83;;
48809;SDS011;40070;47.322;18.784;2023-08-06T04:40:48;0.86;;;0.46;;
48809;SDS011;40070;47.322;18.784;2023-08-06T04:42:49;0.64;;;0.46;;
48809;SDS011;40070;47.322;18.784;2023-08-06T04:44:50;0.56;;;0.46;;
48809;SDS011;40070;47.322;18.784;2023-08-06T04:46:51;0.88;;;0.46;;
48809;SDS011;40070;47.322;18.784;2023-08-06T04:48:52;0.49;;;0.46;;
48809;SDS011;40070;47.322;18.784;2023-08-06T04:50:53;0.65;;;0.37;;
48809;SDS011;40070;47.322;18.784;2023-08-06T04:52:54;0.49;;;0.47;;
48809;SDS011;40070;47.322;18.784;2023-08-06T04:54:55;0.73;;;0.46;;
48809;SDS011;40070;47.322;18.784;2023-08-06T04:56:55;0.40;;;0.37;;
48809;SDS011;40070;47.322;18.784;2023-08-06T04:58:57;0.49;;;0.47;;
48809;SDS011;40070;47.322;18.784;2023-08-06T05:00:57;0.49;;;0.37;;
48809;SDS011;40070;47.322;18.784;2023-08-06T05:03:01;0.41;;;0.37;;
48809;SDS011;40070;47.322;18.784;2023-08-06T05:05:00;0.49;;;0.37;;
48809;SDS011;40070;47.322;18.784;2023-08-06T05:07:00;0.33;;;0.38;;
48809;SDS011;40070;47.322;18.784;2023-08-06T05:09:01;0.42;;;0.38;;
48809;SDS011;40070;47.322;18.784;2023-08-06T05:11:02;0.58;;;0.38;;
48809;SDS011;40070;47.322;18.784;2023-08-06T05:13:03;0.41;;;0.38;;
48809;SDS011;40070;47.322;18.784;2023-08-06T05:15:04;1.25;;;0.47;;
48809;SDS011;40070;47.322;18.784;2023-08-06T05:17:05;0.58;;;0.47;;
48809;SDS011;40070;47.322;18.784;2023-08-06T05:19:06;1.08;;;0.57;;
48809;SDS011;40070;47.322;18.784;2023-08-06T05:21:07;0.59;;;0.47;;
48809;SDS011;40070;47.322;18.784;2023-08-06T05:23:08;0.58;;;0.47;;
48809;SDS011;40070;47.322;18.784;2023-08-06T05:25:11;1.25;;;0.28;;
48809;SDS011;40070;47.322;18.784;2023-08-06T05:27:10;1.83;;;0.38;;
48809;SDS011;40070;47.322;18.784;2023-08-06T05:29:11;1.22;;;0.47;;
48809;SDS011;40070;47.322;18.784;2023-08-06T05:31:12;0.49;;;0.37;;
48809;SDS011;40070;47.322;18.784;2023-08-06T05:33:13;0.33;;;0.28;;
48809;SDS011;40070;47.322;18.784;2023-08-06T05:35:14;0.41;;;0.28;;
48809;SDS011;40070;47.322;18.784;2023-08-06T05:37:15;0.57;;;0.37;;
48809;SDS011;40070;47.322;18.784;2023-08-06T05:39:16;0.24;;;0.28;;
48809;SDS011;40070;47.322;18.784;2023-08-06T05:41:17;0.49;;;0.37;;
48809;SDS011;40070;47.322;18.784;2023-08-06T05:43:18;0.89;;;0.56;;
48809;SDS011;40070;47.322;18.784;2023-08-06T05:45:19;0.40;;;0.37;;
48809;SDS011;40070;47.322;18.784;2023-08-06T05:47:20;0.40;;;0.37;;
48809;SDS011;40070;47.322;18.784;2023-08-06T05:49:21;0.40;;;0.37;;
48809;SDS011;40070;47.322;18.784;2023-08-06T05:51:23;0.47;;;0.46;;
48809;SDS011;40070;47.322;18.784;2023-08-06T05:53:24;0.89;;;0.55;;
48809;SDS011;40070;47.322;18.784;2023-08-06T05:55:25;0.64;;;0.55;;
48809;SDS011;40070;47.322;18.784;2023-08-06T05:57:26;0.63;;;0.55;;
48809;SDS011;40070;47.322;18.784;2023-08-06T05:59:26;0.81;;;0.55;;
48809;SDS011;40070;47.322;18.784;2023-08-06T06:01:28;0.80;;;0.65;;
48809;SDS011;40070;47.322;18.784;2023-08-06T06:03:28;0.57;;;0.46;;
48809;SDS011;40070;47.322;18.784;2023-08-06T06:05:29;0.40;;;0.37;;
48809;SDS011;40070;47.322;18.784;2023-08-06T06:07:30;0.47;;;0.37;;
48809;SDS011;40070;47.322;18.784;2023-08-06T06:09:31;0.96;;;0.46;;
48809;SDS011;40070;47.322;18.784;2023-08-06T06:11:32;2.46;;;0.55;;
48809;SDS011;40070;47.322;18.784;2023-08-06T06:13:33;0.56;;;0.46;;
48809;SDS011;40070;47.322;18.784;2023-08-06T06:15:35;0.72;;;0.55;;
48809;SDS011;40070;47.322;18.784;2023-08-06T06:17:36;0.72;;;0.55;;
48809;SDS011;40070;47.322;18.784;2023-08-06T06:19:37;0.80;;;0.65;;
48809;SDS011;40070;47.322;18.784;2023-08-06T06:21:38;0.56;;;0.46;;
48809;SDS011;40070;47.322;18.784;2023-08-06T06:23:39;0.64;;;0.55;;
48809;SDS011;40070;47.322;18.784;2023-08-06T06:25:43;0.57;;;0.47;;
48809;SDS011;40070;47.322;18.784;2023-08-06T06:27:41;0.57;;;0.46;;
48809;SDS011;40070;47.322;18.784;2023-08-06T06:29:42;0.48;;;0.37;;
48809;SDS011;40070;47.322;18.784;2023-08-06T06:31:43;0.48;;;0.46;;
48809;SDS011;40070;47.322;18.784;2023-08-06T06:33:44;0.64;;;0.46;;
48809;SDS011;40070;47.322;18.784;2023-08-06T06:35:45;0.81;;;0.56;;
48809;SDS011;40070;47.322;18.784;2023-08-06T06:37:46;0.63;;;0.46;;
48809;SDS011;40070;47.322;18.784;2023-08-06T06:39:47;0.48;;;0.37;;
48809;SDS011;40070;47.322;18.784;2023-08-06T06:41:48;0.24;;;0.28;;
48809;SDS011;40070;47.322;18.784;2023-08-06T06:43:49;0.40;;;0.37;;
48809;SDS011;40070;47.322;18.784;2023-08-06T06:45:53;0.32;;;0.37;;
48809;SDS011;40070;47.322;18.784;2023-08-06T06:47:51;0.24;;;0.28;;
48809;SDS011;40070;47.322;18.784;2023-08-06T06:49:52;0.49;;;0.37;;
48809;SDS011;40070;47.322;18.784;2023-08-06T06:51:53;0.33;;;0.28;;
48809;SDS011;40070;47.322;18.784;2023-08-06T06:53:54;0.40;;;0.37;;
48809;SDS011;40070;47.322;18.784;2023-08-06T06:55:55;0.49;;;0.37;;
48809;SDS011;40070;47.322;18.784;2023-08-06T06:57:56;0.33;;;0.28;;
48809;SDS011;40070;47.322;18.784;2023-08-06T06:59:57;0.24;;;0.28;;
48809;SDS011;40070;47.322;18.784;2023-08-06T07:01:58;0.73;;;0.46;;
48809;SDS011;40070;47.322;18.784;2023-08-06T07:03:59;0.49;;;0.37;;
48809;SDS011;40070;47.322;18.784;2023-08-06T07:06:00;0.24;;;0.28;;
48809;SDS011;40070;47.322;18.784;2023-08-06T07:08:01;0.73;;;0.37;;
48809;SDS011;40070;47.322;18.784;2023-08-06T07:10:02;2.79;;;0.65;;
48809;SDS011;40070;47.322;18.784;2023-08-06T07:12:03;0.50;;;0.38;;
48809;SDS011;40070;47.322;18.784;2023-08-06T07:14:05;0.41;;;0.37;;
48809;SDS011;40070;47.322;18.784;2023-08-06T07:16:06;0.50;;;0.38;;
48809;SDS011;40070;47.322;18.784;2023-08-06T07:18:07;0.42;;;0.28;;
48809;SDS011;40070;47.322;18.784;2023-08-06T07:20:08;0.50;;;0.28;;
48809;SDS011;40070;47.322;18.784;2023-08-06T07:22:09;1.00;;;0.38;;
48809;SDS011;40070;47.322;18.784;2023-08-06T07:24:10;0.75;;;0.47;;
48809;SDS011;40070;47.322;18.784;2023-08-06T07:26:11;0.41;;;0.38;;
48809;SDS011;40070;47.322;18.784;2023-08-06T07:28:12;0.67;;;0.38;;
48809;SDS011;40070;47.322;18.784;2023-08-06T07:30:13;0.59;;;0.38;;
48809;SDS011;40070;47.322;18.784;2023-08-06T07:32:14;1.49;;;0.38;;
48809;SDS011;40070;47.322;18.784;2023-08-06T07:34:15;0.58;;;0.38;;
48809;SDS011;40070;47.322;18.784;2023-08-06T07:36:16;0.49;;;0.37;;
48809;SDS011;40070;47.322;18.784;2023-08-06T07:38:17;0.42;;;0.28;;
48809;SDS011;40070;47.322;18.784;2023-08-06T07:40:18;0.67;;;0.47;;
48809;SDS011;40070;47.322;18.784;2023-08-06T07:42:19;0.50;;;0.38;;
48809;SDS011;40070;47.322;18.784;2023-08-06T07:44:20;0.75;;;0.38;;
48809;SDS011;40070;47.322;18.784;2023-08-06T07:46:21;0.51;;;0.38;;
48809;SDS011;40070;47.322;18.784;2023-08-06T07:48:21;0.42;;;0.38;;
48809;SDS011;40070;47.322;18.784;2023-08-06T07:50:23;0.50;;;0.38;;
48809;SDS011;40070;47.322;18.784;2023-08-06T07:52:24;0.42;;;0.38;;
48809;SDS011;40070;47.322;18.784;2023-08-06T07:54:25;0.33;;;0.37;;
48809;SDS011;40070;47.322;18.784;2023-08-06T07:56:26;0.67;;;0.38;;
48809;SDS011;40070;47.322;18.784;2023-08-06T07:58:27;0.60;;;0.38;;
48809;SDS011;40070;47.322;18.784;2023-08-06T08:00:28;0.42;;;0.38;;
48809;SDS011;40070;47.322;18.784;2023-08-06T08:02:29;0.51;;;0.38;;
48809;SDS011;40070;47.322;18.784;2023-08-06T08:04:30;0.76;;;0.47;;
48809;SDS011;40070;47.322;18.784;2023-08-06T08:06:31;0.60;;;0.38;;
48809;SDS011;40070;47.322;18.784;2023-08-06T08:08:32;1.19;;;0.48;;
48809;SDS011;40070;47.322;18.784;2023-08-06T08:10:33;0.92;;;0.47;;
48809;SDS011;40070;47.322;18.784;2023-08-06T08:12:34;0.84;;;0.57;;
48809;SDS011;40070;47.322;18.784;2023-08-06T08:14:35;1.60;;;0.38;;
48809;SDS011;40070;47.322;18.784;2023-08-06T08:16:36;0.76;;;0.47;;
48809;SDS011;40070;47.322;18.784;2023-08-06T08:18:37;0.68;;;0.38;;
48809;SDS011;40070;47.322;18.784;2023-08-06T08:20:38;0.60;;;0.38;;
48809;SDS011;40070;47.322;18.784;2023-08-06T08:22:39;1.03;;;0.57;;
48809;SDS011;40070;47.322;18.784;2023-08-06T08:24:40;1.11;;;0.48;;
48809;SDS011;40070;47.322;18.784;2023-08-06T08:26:41;0.68;;;0.48;;
48809;SDS011;40070;47.322;18.784;2023-08-06T08:28:42;1.02;;;0.57;;
48809;SDS011;40070;47.322;18.784;2023-08-06T08:30:43;0.77;;;0.48;;
48809;SDS011;40070;47.322;18.784;2023-08-06T08:32:44;0.59;;;0.38;;
48809;SDS011;40070;47.322;18.784;2023-08-06T08:34:46;0.94;;;0.48;;
48809;SDS011;40070;47.322;18.784;2023-08-06T08:36:46;1.01;;;0.47;;
48809;SDS011;40070;47.322;18.784;2023-08-06T08:38:47;0.84;;;0.47;;
48809;SDS011;40070;47.322;18.784;2023-08-06T08:40:51;1.51;;;0.47;;
48809;SDS011;40070;47.322;18.784;2023-08-06T08:42:50;1.01;;;0.57;;
48809;SDS011;40070;47.322;18.784;2023-08-06T08:44:51;2.05;;;0.67;;
48809;SDS011;40070;47.322;18.784;2023-08-06T08:46:53;0.85;;;0.48;;
48809;SDS011;40070;47.322;18.784;2023-08-06T08:48:54;1.20;;;0.86;;
48809;SDS011;40070;47.322;18.784;2023-08-06T08:50:55;1.04;;;0.57;;
48809;SDS011;40070;47.322;18.784;2023-08-06T08:52:56;1.40;;;0.58;;
48809;SDS011;40070;47.322;18.784;2023-08-06T08:54:58;0.94;;;0.48;;
48809;SDS011;40070;47.322;18.784;2023-08-06T08:56:59;1.05;;;0.58;;
48809;SDS011;40070;47.322;18.784;2023-08-06T08:59:00;0.77;;;0.48;;
48809;SDS011;40070;47.322;18.784;2023-08-06T09:01:01;1.12;;;0.58;;
48809;SDS011;40070;47.322;18.784;2023-08-06T09:03:04;1.04;;;0.58;;
48809;SDS011;40070;47.322;18.784;2023-08-06T09:05:05;1.03;;;0.57;;
48809;SDS011;40070;47.322;18.784;2023-08-06T09:07:08;0.95;;;0.48;;
48809;SDS011;40070;47.322;18.784;2023-08-06T09:09:25;1.39;;;0.67;;
48809;SDS011;40070;47.322;18.784;2023-08-06T09:11:23;1.05;;;0.58;;
48809;SDS011;40070;47.322;18.784;2023-08-06T09:13:26;1.66;;;0.48;;
48809;SDS011;40070;47.322;18.784;2023-08-06T09:15:27;0.95;;;0.48;;
48809;SDS011;40070;47.322;18.784;2023-08-06T09:17:28;3.00;;;0.68;;
48809;SDS011;40070;47.322;18.784;2023-08-06T09:19:37;0.89;;;0.58;;
48809;SDS011;40070;47.322;18.784;2023-08-06T09:21:45;1.34;;;0.68;;
48809;SDS011;40070;47.322;18.784;2023-08-06T09:23:58;0.80;;;0.48;;
48809;SDS011;40070;47.322;18.784;2023-08-06T09:25:58;0.88;;;0.58;;
48809;SDS011;40070;47.322;18.784;2023-08-06T09:27:59;1.33;;;0.58;;
48809;SDS011;40070;47.322;18.784;2023-08-06T09:30:02;1.23;;;0.58;;
48809;SDS011;40070;47.322;18.784;2023-08-06T09:32:16;0.62;;;0.39;;
48809;SDS011;40070;47.322;18.784;2023-08-06T09:34:17;0.89;;;0.48;;
48809;SDS011;40070;47.322;18.784;2023-08-06T09:36:18;0.71;;;0.48;;
48809;SDS011;40070;47.322;18.784;2023-08-06T09:38:19;1.07;;;0.58;;
48809;SDS011;40070;47.322;18.784;2023-08-06T09:40:26;0.89;;;0.49;;
48809;SDS011;40070;47.322;18.784;2023-08-06T09:42:26;0.89;;;0.49;;
48809;SDS011;40070;47.322;18.784;2023-08-06T09:44:27;1.15;;;0.48;;
48809;SDS011;40070;47.322;18.784;2023-08-06T09:46:29;0.88;;;0.48;;
48809;SDS011;40070;47.322;18.784;2023-08-06T09:48:31;1.43;;;0.68;;
48809;SDS011;40070;47.322;18.784;2023-08-06T09:50:32;1.35;;;0.49;;
48809;SDS011;40070;47.322;18.784;2023-08-06T09:52:33;0.54;;;0.39;;
48809;SDS011;40070;47.322;18.784;2023-08-06T09:54:34;1.36;;;0.49;;
48809;SDS011;40070;47.322;18.784;2023-08-06T09:56:37;2.26;;;0.49;;
48809;SDS011;40070;47.322;18.784;2023-08-06T09:58:38;0.99;;;0.49;;
48809;SDS011;40070;47.322;18.784;2023-08-06T10:00:42;0.81;;;0.39;;
48809;SDS011;40070;47.322;18.784;2023-08-06T10:02:45;1.17;;;0.58;;
48809;SDS011;40070;47.322;18.784;2023-08-06T10:04:46;1.35;;;0.58;;
48809;SDS011;40070;47.322;18.784;2023-08-06T10:06:47;0.81;;;0.59;;
48809;SDS011;40070;47.322;18.784;2023-08-06T10:08:48;0.73;;;0.49;;
48809;SDS011;40070;47.322;18.784;2023-08-06T10:10:49;1.26;;;0.58;;
48809;SDS011;40070;47.322;18.784;2023-08-06T10:12:51;1.52;;;0.78;;
48809;SDS011;40070;47.322;18.784;2023-08-06T10:14:57;1.00;;;0.49;;
48809;SDS011;40070;47.322;18.784;2023-08-06T10:16:58;2.20;;;0.59;;
48809;SDS011;40070;47.322;18.784;2023-08-06T10:19:03;1.00;;;0.59;;
48809;SDS011;40070;47.322;18.784;2023-08-06T10:21:07;1.46;;;0.59;;
48809;SDS011;40070;47.322;18.784;2023-08-06T10:23:13;0.55;;;0.39;;
48809;SDS011;40070;47.322;18.784;2023-08-06T10:25:24;1.27;;;0.59;;
48809;SDS011;40070;47.322;18.784;2023-08-06T10:29:35;0.63;;;0.39;;
48809;SDS011;40070;47.322;18.784;2023-08-06T10:31:54;1.17;;;0.59;;
48809;SDS011;40070;47.322;18.784;2023-08-06T10:33:44;0.99;;;0.49;;
48809;SDS011;40070;47.322;18.784;2023-08-06T10:35:36;1.26;;;0.49;;
48809;SDS011;40070;47.322;18.784;2023-08-06T10:37:36;0.81;;;0.49;;
48809;SDS011;40070;47.322;18.784;2023-08-06T10:39:37;0.99;;;0.49;;
48809;SDS011;40070;47.322;18.784;2023-08-06T10:41:38;1.16;;;0.58;;
48809;SDS011;40070;47.322;18.784;2023-08-06T10:43:51;0.89;;;0.49;;
48809;SDS011;40070;47.322;18.784;2023-08-06T10:45:52;0.81;;;0.49;;
48809;SDS011;40070;47.322;18.784;2023-08-06T10:47:59;1.43;;;0.68;;
48809;SDS011;40070;47.322;18.784;2023-08-06T10:50:00;1.07;;;0.49;;
48809;SDS011;40070;47.322;18.784;2023-08-06T10:52:01;0.89;;;0.49;;
48809;SDS011;40070;47.322;18.784;2023-08-06T10:54:02;1.07;;;0.49;;
48809;SDS011;40070;47.322;18.784;2023-08-06T10:56:13;1.07;;;0.58;;
48809;SDS011;40070;47.322;18.784;2023-08-06T10:58:04;1.34;;;0.68;;
48809;SDS011;40070;47.322;18.784;2023-08-06T11:00:07;1.71;;;0.58;;
48809;SDS011;40070;47.322;18.784;2023-08-06T11:02:07;1.44;;;0.59;;
48809;SDS011;40070;47.322;18.784;2023-08-06T11:04:08;1.26;;;0.59;;
48809;SDS011;40070;47.322;18.784;2023-08-06T11:06:10;1.26;;;0.49;;
48809;SDS011;40070;47.322;18.784;2023-08-06T11:08:11;1.36;;;0.68;;
48809;SDS011;40070;47.322;18.784;2023-08-06T11:10:12;1.46;;;0.69;;
48809;SDS011;40070;47.322;18.784;2023-08-06T11:12:13;1.09;;;0.59;;
48809;SDS011;40070;47.322;18.784;2023-08-06T11:14:15;1.56;;;0.59;;
48809;SDS011;40070;47.322;18.784;2023-08-06T11:16:17;1.10;;;0.59;;
48809;SDS011;40070;47.322;18.784;2023-08-06T11:18:18;1.55;;;0.69;;
48809;SDS011;40070;47.322;18.784;2023-08-06T11:20:19;1.01;;;0.59;;
48809;SDS011;40070;47.322;18.784;2023-08-06T11:22:21;1.01;;;0.49;;
48809;SDS011;40070;47.322;18.784;2023-08-06T11:24:23;1.19;;;0.59;;
48809;SDS011;40070;47.322;18.784;2023-08-06T11:26:24;1.28;;;0.59;;
48809;SDS011;40070;47.322;18.784;2023-08-06T11:28:25;1.92;;;0.59;;
48809;SDS011;40070;47.322;18.784;2023-08-06T11:30:26;1.56;;;0.69;;
48809;SDS011;40070;47.322;18.784;2023-08-06T11:32:44;1.38;;;0.88;;
48809;SDS011;40070;47.322;18.784;2023-08-06T11:34:35;0.92;;;0.49;;
48809;SDS011;40070;47.322;18.784;2023-08-06T11:36:39;1.39;;;0.59;;
48809;SDS011;40070;47.322;18.784;2023-08-06T11:38:37;1.30;;;0.59;;
48809;SDS011;40070;47.322;18.784;2023-08-06T11:40:39;1.20;;;0.59;;
48809;SDS011;40070;47.322;18.784;2023-08-06T11:42:42;2.69;;;0.69;;
48809;SDS011;40070;47.322;18.784;2023-08-06T11:44:43;1.30;;;0.69;;
48809;SDS011;40070;47.322;18.784;2023-08-06T11:46:53;1.22;;;0.59;;
48809;SDS011;40070;47.322;18.784;2023-08-06T11:48:54;1.78;;;0.79;;
48809;SDS011;40070;47.322;18.784;2023-08-06T11:50:56;1.12;;;0.59;;
48809;SDS011;40070;47.322;18.784;2023-08-06T11:52:58;2.60;;;0.69;;
48809;SDS011;40070;47.322;18.784;2023-08-06T11:55:04;1.68;;;0.69;;
48809;SDS011;40070;47.322;18.784;2023-08-06T11:57:05;1.22;;;0.49;;
48809;SDS011;40070;47.322;18.784;2023-08-06T11:59:06;1.67;;;0.79;;
48809;SDS011;40070;47.322;18.784;2023-08-06T12:01:07;1.85;;;0.79;;
48809;SDS011;40070;47.322;18.784;2023-08-06T12:03:12;1.48;;;0.69;;
48809;SDS011;40070;47.322;18.784;2023-08-06T12:05:29;1.11;;;0.49;;
48809;SDS011;40070;47.322;18.784;2023-08-06T12:07:37;2.40;;;0.69;;
48809;SDS011;40070;47.322;18.784;2023-08-06T12:09:38;1.67;;;0.69;;